Time;durP1;ratioP1;P1;durP2;ratioP2;P2;SDS_P1;SDS_P2;PMS_P1;PMS_P2;Temp;Humidity;BMP_temperature;BMP_pressure;BME280_temperature;BME280_humidity;BME280_pressure;Samples;Min_cycle;Max_cycle;Signal;HPM_P1;HPM_P2
2021/12/29 00:00:40;;;;;;;6.97;2.30;;;;;;;-146.19;100.00;58918.88;4996452;28;20070;-51
2021/12/29 00:03:09;;;;;;;10.07;2.42;;;;;;;-146.19;100.00;58918.88;5012981;28;20065;-57
2021/12/29 00:05:37;;;;;;;9.88;2.85;;;;;;;-146.19;100.00;58918.88;5026659;28;20465;-54
2021/12/29 00:08:06;;;;;;;7.25;2.45;;;;;;;-146.19;100.00;58918.88;5023950;28;20069;-51
2021/12/29 00:10:34;;;;;;;7.50;2.63;;;;;;;-146.19;100.00;58918.88;5022778;28;20610;-55
2021/12/29 00:13:04;;;;;;;8.95;3.03;;;;;;;-146.19;100.00;58918.88;5020005;28;20080;-52
2021/12/29 00:15:33;;;;;;;5.53;2.63;;;;;;;-146.19;100.00;58918.88;5024864;28;20072;-58
2021/12/29 00:18:02;;;;;;;6.45;2.63;;;;;;;-146.19;100.00;58918.88;5019346;28;20084;-53
2021/12/29 00:20:32;;;;;;;10.25;2.88;;;;;;;-146.19;100.00;58918.88;5027017;28;20554;-56
2021/12/29 00:23:03;;;;;;;8.68;2.72;;;;;;;-146.19;100.00;58918.88;5022511;28;20104;-55
2021/12/29 00:25:32;;;;;;;7.45;2.60;;;;;;;-146.19;100.00;58918.88;5026693;28;20069;-54
2021/12/29 00:28:01;;;;;;;9.15;2.75;;;;;;;-146.19;100.00;58918.88;5027330;28;20760;-58
2021/12/29 00:30:30;;;;;;;8.25;2.55;;;;;;;-146.19;100.00;58918.88;5026090;28;20084;-56
2021/12/29 00:32:59;;;;;;;5.80;2.47;;;;;;;-146.19;100.00;58918.88;5026842;28;20099;-49
2021/12/29 00:35:29;;;;;;;7.60;2.58;;;;;;;-146.19;100.00;58918.88;5022151;28;20536;-54
2021/12/29 00:37:59;;;;;;;6.20;2.47;;;;;;;-146.19;100.00;58918.88;5027293;28;20072;-53
2021/12/29 00:40:28;;;;;;;4.93;2.83;;;;;;;-146.19;100.00;58918.88;5025432;28;20092;-57
2021/12/29 00:42:56;;;;;;;4.30;2.60;;;;;;;-146.19;100.00;58918.88;5024719;28;20479;-56
2021/12/29 00:45:25;;;;;;;8.73;2.70;;;;;;;-146.19;100.00;58918.88;5020350;28;20064;-61
2021/12/29 00:47:55;;;;;;;4.13;2.47;;;;;;;-146.19;100.00;58918.88;5022591;28;20535;-55
2021/12/29 00:50:24;;;;;;;11.23;2.70;;;;;;;-146.19;100.00;58918.88;5010904;28;20074;-52
2021/12/29 00:52:54;;;;;;;7.13;2.22;;;;;;;-146.19;100.00;58918.88;4999030;28;20066;-58
2021/12/29 00:55:22;;;;;;;8.63;2.30;;;;;;;-146.19;100.00;58918.88;5001443;28;20078;-60
2021/12/29 00:57:51;;;;;;;4.18;1.92;;;;;;;-146.19;100.00;58918.88;5024093;28;20092;-56
2021/12/29 01:00:21;;;;;;;6.35;2.40;;;;;;;-146.19;100.00;58918.88;5022493;28;20068;-58
2021/12/29 01:02:50;;;;;;;8.73;2.63;;;;;;;-146.19;100.00;58918.88;5020984;28;20119;-54
2021/12/29 01:05:20;;;;;;;5.68;2.72;;;;;;;-146.19;100.00;58918.88;5023119;28;20065;-56
2021/12/29 01:07:49;;;;;;;4.95;2.22;;;;;;;-146.19;100.00;58918.88;5019087;28;20061;-55
2021/12/29 01:10:19;;;;;;;4.07;1.92;;;;;;;-146.19;100.00;58918.88;5002204;28;20077;-57
2021/12/29 01:12:54;;;;;;;4.20;2.30;;;;;;;-146.19;100.00;58918.88;5008821;28;20302;-55
2021/12/29 01:15:27;;;;;;;3.95;2.00;;;;;;;-146.19;100.00;58918.88;5016557;28;20137;-50
2021/12/29 01:17:57;;;;;;;9.52;2.40;;;;;;;-146.19;100.00;58918.88;5008206;28;20080;-54
2021/12/29 01:20:25;;;;;;;10.68;2.38;;;;;;;-146.19;100.00;58918.88;5010574;28;20453;-57
2021/12/29 01:22:54;;;;;;;5.85;2.33;;;;;;;-146.19;100.00;58918.88;5026775;28;20072;-55
2021/12/29 01:25:24;;;;;;;4.30;2.35;;;;;;;-146.19;100.00;58918.88;5023965;28;20081;-59
2021/12/29 01:27:52;;;;;;;7.30;1.98;;;;;;;-146.19;100.00;58918.88;5022345;28;20081;-55
2021/12/29 01:30:21;;;;;;;5.35;2.10;;;;;;;-146.19;100.00;58918.88;5021693;28;20065;-56
2021/12/29 01:32:49;;;;;;;7.50;2.20;;;;;;;-146.19;100.00;58918.88;5010065;28;20066;-55
2021/12/29 01:35:18;;;;;;;2.97;1.85;;;;;;;-146.19;100.00;58918.88;5011464;28;20069;-59
2021/12/29 01:37:46;;;;;;;2.47;1.73;;;;;;;-146.19;100.00;58918.88;5016536;28;20069;-57
2021/12/29 01:40:18;;;;;;;4.60;1.98;;;;;;;-146.19;100.00;58918.88;5023884;28;20126;-56
2021/12/29 01:42:48;;;;;;;5.63;2.15;;;;;;;-146.19;100.00;58918.88;5020001;28;20485;-59
2021/12/29 01:45:16;;;;;;;6.80;2.30;;;;;;;-146.19;100.00;58918.88;5022042;28;20515;-59
2021/12/29 01:47:45;;;;;;;6.25;2.25;;;;;;;-146.19;100.00;58918.88;5024669;28;20077;-53
2021/12/29 01:50:14;;;;;;;5.75;2.22;;;;;;;-146.19;100.00;58918.88;5014504;28;20078;-61
2021/12/29 01:52:42;;;;;;;5.40;2.40;;;;;;;-146.19;100.00;58918.88;5000708;28;20062;-59
2021/12/29 01:55:14;;;;;;;3.35;2.03;;;;;;;-146.19;100.00;58918.88;5000942;28;20074;-58
2021/12/29 01:57:44;;;;;;;5.70;1.85;;;;;;;-146.19;100.00;58918.88;4996838;28;20073;-54
2021/12/29 02:00:18;;;;;;;5.38;2.25;;;;;;;-146.19;100.00;58918.88;4991999;28;20457;-55
2021/12/29 02:02:46;;;;;;;3.90;2.25;;;;;;;-146.19;100.00;58918.88;5012743;28;20084;-57
2021/12/29 02:05:15;;;;;;;5.22;2.17;;;;;;;-146.19;100.00;58918.88;5024533;28;20076;-60
2021/12/29 02:07:44;;;;;;;4.50;2.10;;;;;;;-146.19;100.00;58918.88;5024445;28;20080;-56
2021/12/29 02:10:14;;;;;;;2.70;1.80;;;;;;;-146.19;100.00;58918.88;5023661;28;20083;-57
2021/12/29 02:12:42;;;;;;;4.88;2.30;;;;;;;-146.19;100.00;58918.88;4994989;28;20476;-55
2021/12/29 02:15:12;;;;;;;8.10;2.13;;;;;;;-146.19;100.00;58918.88;5025850;28;20073;-57
2021/12/29 02:17:42;;;;;;;3.05;2.00;;;;;;;-146.19;100.00;58918.88;5005405;28;20083;-59
2021/12/29 02:20:14;;;;;;;4.60;1.85;;;;;;;-146.19;100.00;58918.88;4993673;28;20085;-58
2021/12/29 02:22:46;;;;;;;5.50;2.58;;;;;;;-146.19;100.00;58918.88;5001751;28;20076;-56
2021/12/29 02:25:22;;;;;;;6.20;2.33;;;;;;;-146.19;100.00;58918.88;5021744;28;20077;-54
2021/12/29 02:27:52;;;;;;;7.35;2.42;;;;;;;-146.19;100.00;58918.88;5021604;28;21519;-60
2021/12/29 02:30:23;;;;;;;3.40;2.08;;;;;;;-146.19;100.00;58918.88;5022659;28;20471;-57
2021/12/29 02:32:54;;;;;;;6.35;2.40;;;;;;;-146.19;100.00;58918.88;5025936;28;20088;-49
2021/12/29 02:35:26;;;;;;;6.25;2.63;;;;;;;-146.19;100.00;58918.88;5023228;28;20076;-55
2021/12/29 02:37:55;;;;;;;4.60;2.40;;;;;;;-146.19;100.00;58918.88;5012443;28;20081;-57
2021/12/29 02:40:23;;;;;;;7.28;2.20;;;;;;;-146.19;100.00;58918.88;4995619;28;20081;-52
2021/12/29 02:42:51;;;;;;;3.25;2.35;;;;;;;-146.19;100.00;58918.88;4997118;28;20488;-60
2021/12/29 02:45:22;;;;;;;3.25;1.95;;;;;;;-146.19;100.00;58918.88;4995926;28;20069;-60
2021/12/29 02:47:50;;;;;;;4.45;2.30;;;;;;;-146.19;100.00;58918.88;4998419;28;20065;-57
2021/12/29 02:50:19;;;;;;;4.45;2.10;;;;;;;-146.19;100.00;58918.88;5001960;28;20550;-59
2021/12/29 02:52:49;;;;;;;5.55;2.20;;;;;;;-146.19;100.00;58918.88;4994604;28;20077;-56
2021/12/29 02:55:17;;;;;;;6.30;2.20;;;;;;;-146.19;100.00;58918.88;4997142;28;20081;-51
2021/12/29 02:57:46;;;;;;;6.68;2.33;;;;;;;-146.19;100.00;58918.88;5003659;28;20459;-60
2021/12/29 03:00:16;;;;;;;5.70;2.42;;;;;;;-146.19;100.00;58918.88;5000383;28;20081;-57
2021/12/29 03:02:46;;;;;;;7.32;2.28;;;;;;;-146.19;100.00;58918.88;5001032;28;20061;-58
2021/12/29 03:05:14;;;;;;;;;;;;;;;-146.19;100.00;58918.88;5000148;28;20412;-61
2021/12/29 03:07:43;;;;;;;8.48;2.28;;;;;;;-146.19;100.00;58918.88;5004320;28;19968;-57
2021/12/29 03:10:13;;;;;;;6.00;2.28;;;;;;;-146.19;100.00;58918.88;5023870;28;20444;-60
2021/12/29 03:12:41;;;;;;;6.37;2.10;;;;;;;-146.19;100.00;58918.88;5019503;28;20077;-58
2021/12/29 03:15:10;;;;;;;4.88;2.20;;;;;;;-146.19;100.00;58918.88;5016786;28;20120;-59
2021/12/29 03:17:38;;;;;;;6.00;1.90;;;;;;;-146.19;100.00;58918.88;5017846;28;20072;-58
2021/12/29 03:20:07;;;;;;;6.68;2.33;;;;;;;-146.19;100.00;58918.88;5015847;28;20068;-60
2021/12/29 03:22:36;;;;;;;8.13;2.83;;;;;;;-146.19;100.00;58918.88;5014626;28;20077;-58
2021/12/29 03:25:05;;;;;;;5.95;3.17;;;;;;;-146.19;100.00;58918.88;5000664;28;20097;-56
2021/12/29 03:27:35;;;;;;;7.70;2.83;;;;;;;-146.19;100.00;58918.88;5016314;28;20066;-60
2021/12/29 03:30:04;;;;;;;7.10;2.90;;;;;;;-146.19;100.00;58918.88;5021310;28;20069;-58
2021/12/29 03:32:41;;;;;;;6.38;2.40;;;;;;;-146.19;100.00;58918.88;5018299;28;20168;-59
2021/12/29 03:35:10;;;;;;;7.57;2.58;;;;;;;-146.19;100.00;58918.88;5008624;28;20092;-61
2021/12/29 03:37:38;;;;;;;7.50;2.42;;;;;;;-146.19;100.00;58918.88;4998979;28;20468;-60
2021/12/29 03:40:08;;;;;;;6.13;2.05;;;;;;;-146.19;100.00;58918.88;4996449;28;20078;-59
2021/12/29 03:42:38;;;;;;;4.07;2.65;;;;;;;-146.19;100.00;58918.88;5018350;28;20155;-54
2021/12/29 03:45:07;;;;;;;5.22;2.15;;;;;;;-146.19;100.00;58918.88;5016056;28;20072;-61
2021/12/29 03:47:35;;;;;;;4.13;2.10;;;;;;;-146.19;100.00;58918.88;5023283;28;20531;-56
2021/12/29 03:50:04;;;;;;;5.07;2.47;;;;;;;-146.19;100.00;58918.88;5019127;28;20487;-59
2021/12/29 03:52:33;;;;;;;11.07;2.60;;;;;;;-146.19;100.00;58918.88;5030600;28;20469;-56
2021/12/29 03:55:01;;;;;;;3.17;2.17;;;;;;;-146.19;100.00;58918.88;5025943;28;20069;-55
2021/12/29 03:57:29;;;;;;;4.90;2.35;;;;;;;-146.19;100.00;58918.88;5036926;28;20048;-61
2021/12/29 03:59:59;;;;;;;6.10;2.40;;;;;;;-146.19;100.00;58918.88;5041309;28;20068;-60
2021/12/29 04:02:28;;;;;;;6.13;2.20;;;;;;;-146.19;100.00;58918.88;5021882;28;20069;-59
2021/12/29 04:04:56;;;;;;;6.05;2.15;;;;;;;-146.19;100.00;58918.88;5016947;28;20618;-60
2021/12/29 04:07:25;;;;;;;4.53;2.47;;;;;;;-146.19;100.00;58918.88;5011941;28;20084;-61
2021/12/29 04:09:53;;;;;;;2.22;2.00;;;;;;;-146.19;100.00;58918.88;5022716;28;20079;-58
2021/12/29 04:12:21;;;;;;;10.27;2.25;;;;;;;-146.19;100.00;58918.88;5016179;28;20073;-58
2021/12/29 04:14:50;;;;;;;4.18;2.00;;;;;;;-146.19;100.00;58918.88;5019877;28;20072;-58
2021/12/29 04:17:25;;;;;;;6.15;2.00;;;;;;;-146.19;100.00;58918.88;5021671;28;20065;-58
2021/12/29 04:22:36;;;;;;;5.07;2.22;;;;;;;-146.19;100.00;58918.88;4966048;28;20493;-60
2021/12/29 04:25:05;;;;;;;3.60;2.13;;;;;;;-146.19;100.00;58918.88;4998428;28;20105;-61
2021/12/29 04:27:33;;;;;;;5.88;2.55;;;;;;;-146.19;100.00;58918.88;5021974;28;20072;-57
2021/12/29 04:30:02;;;;;;;5.60;1.98;;;;;;;-146.19;100.00;58918.88;5005176;28;20069;-61
2021/12/29 04:32:32;;;;;;;2.97;2.05;;;;;;;-146.19;100.00;58918.88;5007954;28;20164;-58
2021/12/29 04:35:00;;;;;;;4.03;2.13;;;;;;;-146.19;100.00;58918.88;5022281;28;20084;-60
2021/12/29 04:37:28;;;;;;;4.97;2.05;;;;;;;-146.19;100.00;58918.88;5023642;28;20103;-61
2021/12/29 04:39:57;;;;;;;2.60;2.00;;;;;;;-146.19;100.00;58918.88;5019047;28;20461;-59
2021/12/29 04:42:25;;;;;;;5.25;2.40;;;;;;;-146.19;100.00;58918.88;5027577;28;20075;-61
2021/12/29 04:44:53;;;;;;;6.65;2.10;;;;;;;-146.19;100.00;58918.88;5020300;28;20099;-58
2021/12/29 04:47:27;;;;;;;4.30;2.20;;;;;;;-146.19;100.00;58918.88;5021632;28;20088;-60
2021/12/29 04:50:00;;;;;;;5.13;2.17;;;;;;;-146.19;100.00;58918.88;5021895;28;20076;-58
2021/12/29 04:52:29;;;;;;;3.92;2.25;;;;;;;-146.19;100.00;58918.88;5020086;28;20076;-55
2021/12/29 04:54:57;;;;;;;6.50;2.20;;;;;;;-146.19;100.00;58918.88;5020086;28;20599;-61
2021/12/29 04:57:26;;;;;;;5.13;2.17;;;;;;;-146.19;100.00;58918.88;5017974;28;20065;-60
2021/12/29 04:59:54;;;;;;;2.05;1.80;;;;;;;-146.19;100.00;58918.88;5002592;28;20061;-62
2021/12/29 05:02:23;;;;;;;2.88;1.80;;;;;;;-146.19;100.00;58918.88;4996121;28;20066;-60
2021/12/29 05:04:59;;;;;;;1.92;1.70;;;;;;;-146.19;100.00;58918.88;5003826;28;20069;-61
2021/12/29 05:10:15;;;;;;;2.88;1.70;;;;;;;-146.19;100.00;58918.88;5029701;28;20560;-59
2021/12/29 05:12:44;;;;;;;1.90;1.77;;;;;;;-146.19;100.00;58918.88;5025194;28;20049;-60
2021/12/29 05:15:12;;;;;;;6.13;2.10;;;;;;;-146.19;100.00;58918.88;5023419;28;20515;-58
2021/12/29 05:17:40;;;;;;;2.42;2.10;;;;;;;-146.19;100.00;58918.88;5023722;28;20057;-59
2021/12/29 05:20:10;;;;;;;3.13;1.75;;;;;;;-146.19;100.00;58918.88;5025319;28;20077;-61
2021/12/29 05:22:40;;;;;;;3.97;1.90;;;;;;;-146.19;100.00;58918.88;5020998;28;20068;-61
2021/12/29 05:25:09;;;;;;;5.25;2.13;;;;;;;-146.19;100.00;58918.88;5027714;28;20475;-55
2021/12/29 05:27:37;;;;;;;4.05;1.92;;;;;;;-146.19;100.00;58918.88;5008206;28;20065;-57
2021/12/29 05:30:08;;;;;;;2.58;1.80;;;;;;;-146.19;100.00;58918.88;4997783;28;20525;-58
2021/12/29 05:32:36;;;;;;;3.72;2.00;;;;;;;-146.19;100.00;58918.88;5002003;28;20061;-58
2021/12/29 05:35:05;;;;;;;3.08;1.70;;;;;;;-146.19;100.00;58918.88;5008798;28;20081;-56
2021/12/29 05:37:34;;;;;;;4.38;2.10;;;;;;;-146.19;100.00;58918.88;5023092;28;20436;-57
2021/12/29 05:40:05;;;;;;;2.10;1.73;;;;;;;-146.19;100.00;58918.88;5001469;28;20112;-61
2021/12/29 05:42:34;;;;;;;3.42;1.90;;;;;;;-146.19;100.00;58918.88;5003937;28;20076;-60
2021/12/29 05:45:03;;;;;;;5.53;2.17;;;;;;;-146.19;100.00;58918.88;5000273;28;20528;-60
2021/12/29 05:47:32;;;;;;;3.38;1.90;;;;;;;-146.19;100.00;58918.88;5000769;28;20041;-61
2021/12/29 05:50:00;;;;;;;2.30;1.75;;;;;;;-146.19;100.00;58918.88;5003230;28;20520;-58
2021/12/29 05:52:29;;;;;;;2.92;1.90;;;;;;;-146.19;100.00;58918.88;5007194;28;20081;-56
2021/12/29 05:54:57;;;;;;;3.97;2.03;;;;;;;-146.19;100.00;58918.88;5002673;28;20493;-59
2021/12/29 05:57:27;;;;;;;5.35;2.13;;;;;;;-146.19;100.00;58918.88;4999517;28;20532;-60
2021/12/29 05:59:55;;;;;;;2.97;2.00;;;;;;;-146.19;100.00;58918.88;5001320;28;20089;-58
2021/12/29 06:02:24;;;;;;;4.38;1.98;;;;;;;-146.19;100.00;58918.88;4999968;28;20072;-58
2021/12/29 06:04:53;;;;;;;4.22;2.10;;;;;;;-146.19;100.00;58918.88;5000255;28;20077;-60
2021/12/29 06:07:21;;;;;;;2.00;1.90;;;;;;;-146.19;100.00;58918.88;5000596;28;20085;-52
2021/12/29 06:09:50;;;;;;;4.13;1.95;;;;;;;-146.19;100.00;58918.88;5024814;28;20084;-57
2021/12/29 06:12:18;;;;;;;3.58;2.00;;;;;;;-146.19;100.00;58918.88;5022666;28;20073;-58
2021/12/29 06:14:48;;;;;;;3.33;2.03;;;;;;;-146.19;100.00;58918.88;5024325;28;20065;-56
2021/12/29 06:17:17;;;;;;;4.65;2.15;;;;;;;-146.19;100.00;58918.88;5014197;28;20066;-59
2021/12/29 06:19:45;;;;;;;3.03;1.80;;;;;;;-146.19;100.00;58918.88;5001555;28;20536;-57
2021/12/29 06:22:14;;;;;;;3.05;2.10;;;;;;;-146.19;100.00;58918.88;4999316;28;20104;-55
2021/12/29 06:24:43;;;;;;;8.00;2.13;;;;;;;-146.19;100.00;58918.88;5022929;28;20663;-57
2021/12/29 06:27:12;;;;;;;3.03;1.90;;;;;;;-146.19;100.00;58918.88;5009742;28;20125;-53
2021/12/29 06:29:40;;;;;;;3.55;1.95;;;;;;;-146.19;100.00;58918.88;4999273;28;20065;-58
2021/12/29 06:32:10;;;;;;;6.07;2.53;;;;;;;-146.19;100.00;58918.88;5001467;28;20062;-59
2021/12/29 06:34:38;;;;;;;1.87;1.77;;;;;;;-146.19;100.00;58918.88;5005929;28;20087;-58
2021/12/29 06:37:08;;;;;;;3.90;2.13;;;;;;;-146.19;100.00;58918.88;5028151;28;20080;-57
2021/12/29 06:39:37;;;;;;;3.05;1.75;;;;;;;-146.19;100.00;58918.88;5022115;28;20077;-59
2021/12/29 06:42:06;;;;;;;3.15;1.70;;;;;;;-146.19;100.00;58918.88;5020000;28;20069;-56
2021/12/29 06:44:35;;;;;;;2.80;1.70;;;;;;;-146.19;100.00;58918.88;5014238;28;20562;-57
2021/12/29 06:47:04;;;;;;;3.65;2.25;;;;;;;-146.19;100.00;58918.88;5010364;28;20083;-59
2021/12/29 06:49:34;;;;;;;6.57;2.08;;;;;;;-146.19;100.00;58918.88;5025394;28;20077;-56
2021/12/29 06:52:03;;;;;;;6.38;1.90;;;;;;;-146.19;100.00;58918.88;5021696;28;20093;-56
2021/12/29 06:54:32;;;;;;;3.83;2.17;;;;;;;-146.19;100.00;58918.88;5020920;28;20471;-58
2021/12/29 06:57:01;;;;;;;5.30;2.20;;;;;;;-146.19;100.00;58918.88;5025516;28;20653;-54
2021/12/29 06:59:29;;;;;;;3.65;2.10;;;;;;;-146.19;100.00;58918.88;5028094;28;20068;-56
2021/12/29 07:01:57;;;;;;;7.35;2.17;;;;;;;-146.19;100.00;58918.88;5031816;28;20095;-55
2021/12/29 07:04:27;;;;;;;3.65;1.88;;;;;;;-146.19;100.00;58918.88;5021645;28;20076;-61
2021/12/29 07:06:58;;;;;;;2.38;1.80;;;;;;;-146.19;100.00;58918.88;5027492;28;20061;-53
2021/12/29 07:09:27;;;;;;;3.92;1.90;;;;;;;-146.19;100.00;58918.88;5021268;28;20520;-58
2021/12/29 07:11:55;;;;;;;5.55;2.05;;;;;;;-146.19;100.00;58918.88;5027147;28;20073;-58
2021/12/29 07:14:24;;;;;;;5.18;2.17;;;;;;;-146.19;100.00;58918.88;5025069;28;20068;-54
2021/12/29 07:16:52;;;;;;;5.43;2.40;;;;;;;-146.19;100.00;58918.88;5022108;28;20076;-57
2021/12/29 07:19:21;;;;;;;3.97;2.00;;;;;;;-146.19;100.00;58918.88;5024910;28;20088;-60
2021/12/29 07:21:50;;;;;;;7.50;2.47;;;;;;;-146.19;100.00;58918.88;5024645;28;20544;-55
2021/12/29 07:24:20;;;;;;;2.97;2.00;;;;;;;-146.19;100.00;58918.88;5021537;28;20057;-56
2021/12/29 07:26:48;;;;;;;4.60;2.23;;;;;;;-146.19;100.00;58918.88;5023637;28;20061;-59
2021/12/29 07:29:17;;;;;;;6.10;2.33;;;;;;;-146.19;100.00;58918.88;5024732;28;20061;-55
2021/12/29 07:31:46;;;;;;;3.72;2.10;;;;;;;-146.19;100.00;58918.88;5019384;28;20096;-56
2021/12/29 07:34:20;;;;;;;4.30;2.00;;;;;;;-146.19;100.00;58918.88;4999397;28;20591;-51
2021/12/29 07:36:49;;;;;;;4.88;2.10;;;;;;;-146.19;100.00;58918.88;5007057;28;20069;-53
2021/12/29 07:39:17;;;;;;;2.13;1.90;;;;;;;-146.19;100.00;58918.88;5018455;28;20061;-56
2021/12/29 07:41:48;;;;;;;3.58;2.03;;;;;;;-146.19;100.00;58918.88;5027058;28;20065;-53
2021/12/29 07:44:17;;;;;;;6.95;2.35;;;;;;;-146.19;100.00;58918.88;5028536;28;20460;-57
2021/12/29 07:46:53;;;;;;;2.65;1.80;;;;;;;-146.19;100.00;58918.88;5019271;28;20133;-53
2021/12/29 07:49:22;;;;;;;3.13;2.17;;;;;;;-146.19;100.00;58918.88;4998103;28;20074;-51
2021/12/29 07:51:52;;;;;;;5.18;2.05;;;;;;;-146.19;100.00;58918.88;5025320;28;20466;-50
2021/12/29 07:54:21;;;;;;;3.33;1.90;;;;;;;-146.19;100.00;58918.88;5025589;28;20077;-51
2021/12/29 07:56:51;;;;;;;4.63;2.45;;;;;;;-146.19;100.00;58918.88;5025207;28;20057;-57
2021/12/29 07:59:20;;;;;;;1.95;1.85;;;;;;;-146.19;100.00;58918.88;5019936;28;20115;-54
2021/12/29 08:01:49;;;;;;;8.83;2.13;;;;;;;-146.19;100.00;58918.88;5013884;28;20628;-53
2021/12/29 08:04:20;;;;;;;4.20;2.10;;;;;;;-146.19;100.00;58918.88;5000208;28;20508;-51
2021/12/29 08:06:48;;;;;;;3.03;2.00;;;;;;;-146.19;100.00;58918.88;5024121;28;20450;-53
2021/12/29 08:09:17;;;;;;;2.20;2.00;;;;;;;-146.19;100.00;58918.88;5025550;28;20069;-54
2021/12/29 08:11:46;;;;;;;3.05;2.30;;;;;;;-146.19;100.00;58918.88;5028380;28;20095;-55
2021/12/29 08:14:16;;;;;;;5.63;2.35;;;;;;;-146.19;100.00;58918.88;5026860;28;20065;-55
2021/12/29 08:16:45;;;;;;;8.02;2.20;;;;;;;-146.19;100.00;58918.88;5026466;28;20065;-55
2021/12/29 08:19:14;;;;;;;2.75;2.10;;;;;;;-146.19;100.00;58918.88;5028536;28;20507;-51
2021/12/29 08:21:43;;;;;;;4.10;2.00;;;;;;;-146.19;100.00;58918.88;5027502;28;20522;-54
2021/12/29 08:24:12;;;;;;;5.55;1.90;;;;;;;-146.19;100.00;58918.88;5026351;28;20069;-51
2021/12/29 08:26:40;;;;;;;5.30;2.33;;;;;;;-146.19;100.00;58918.88;5022121;28;20067;-52
2021/12/29 08:29:09;;;;;;;6.05;2.20;;;;;;;-146.19;100.00;58918.88;5023404;28;20073;-56
2021/12/29 08:31:38;;;;;;;4.70;2.08;;;;;;;-146.19;100.00;58918.88;5026537;28;22935;-53
2021/12/29 08:34:07;;;;;;;2.88;2.20;;;;;;;-146.19;100.00;58918.88;5026626;28;20452;-55
2021/12/29 08:36:35;;;;;;;4.93;2.30;;;;;;;-146.19;100.00;58918.88;5025874;28;20065;-54
2021/12/29 08:39:04;;;;;;;2.38;1.83;;;;;;;-146.19;100.00;58918.88;5029649;28;20076;-51
2021/12/29 08:41:32;;;;;;;3.92;2.28;;;;;;;-146.19;100.00;58918.88;5025870;28;20080;-54
2021/12/29 08:44:01;;;;;;;2.70;2.13;;;;;;;-146.19;100.00;58918.88;5025863;28;20912;-51
2021/12/29 08:46:31;;;;;;;3.25;2.00;;;;;;;-146.19;100.00;58918.88;5033707;28;20192;-52
2021/12/29 08:49:01;;;;;;;2.35;1.90;;;;;;;-146.19;100.00;58918.88;5028228;28;20085;-52
2021/12/29 08:51:29;;;;;;;4.07;2.00;;;;;;;-146.19;100.00;58918.88;5025125;28;20068;-57
2021/12/29 08:53:59;;;;;;;3.40;2.03;;;;;;;-146.19;100.00;58918.88;5009989;28;21046;-56
2021/12/29 08:56:27;;;;;;;6.30;2.05;;;;;;;-146.19;100.00;58918.88;5005416;28;20066;-54
2021/12/29 08:58:56;;;;;;;3.22;2.00;;;;;;;-146.19;100.00;58918.88;4999988;28;20539;-54
2021/12/29 09:01:26;;;;;;;4.15;1.95;;;;;;;-146.19;100.00;58918.88;5001753;28;20089;-58
2021/12/29 09:03:54;;;;;;;4.05;2.10;;;;;;;-146.19;100.00;58918.88;5008844;28;20363;-53
2021/12/29 09:06:24;;;;;;;6.40;2.05;;;;;;;-146.19;100.00;58918.88;5000843;28;20076;-54
2021/12/29 09:08:54;;;;;;;3.47;1.93;;;;;;;-146.19;100.00;58918.88;4999024;28;20069;-53
2021/12/29 09:11:22;;;;;;;4.13;1.88;;;;;;;-146.19;100.00;58918.88;5004210;28;20481;-54
2021/12/29 09:13:51;;;;;;;8.25;1.95;;;;;;;-146.19;100.00;58918.88;5015018;28;20068;-51
2021/12/29 09:16:20;;;;;;;3.33;1.75;;;;;;;-146.19;100.00;58918.88;5025994;28;20081;-57
2021/12/29 09:18:48;;;;;;;4.75;1.98;;;;;;;-146.19;100.00;58918.88;5026665;28;20092;-56
2021/12/29 09:21:18;;;;;;;4.07;1.98;;;;;;;-146.19;100.00;58918.88;5026367;28;20711;-50
2021/12/29 09:23:48;;;;;;;4.63;1.73;;;;;;;-146.19;100.00;58918.88;5026085;28;20075;-52
2021/12/29 09:26:18;;;;;;;3.80;1.70;;;;;;;-146.19;100.00;58918.88;5015215;28;20069;-53
2021/12/29 09:28:48;;;;;;;1.95;1.65;;;;;;;-146.19;100.00;58918.88;5004805;28;20065;-55
2021/12/29 09:31:19;;;;;;;3.92;1.90;;;;;;;-146.19;100.00;58918.88;5031134;28;20073;-56
2021/12/29 09:33:47;;;;;;;5.53;1.70;;;;;;;-146.19;100.00;58918.88;5019590;28;20092;-51
2021/12/29 09:36:16;;;;;;;4.15;1.70;;;;;;;-146.19;100.00;58918.88;5025710;28;20716;-54
2021/12/29 09:38:44;;;;;;;2.72;1.55;;;;;;;-146.19;100.00;58918.88;5026282;28;20068;-54
2021/12/29 09:41:17;;;;;;;2.28;1.63;;;;;;;-146.19;100.00;58918.88;5017141;28;20062;-57
2021/12/29 09:43:47;;;;;;;5.85;1.70;;;;;;;-146.19;100.00;58918.88;4999178;28;20149;-50
2021/12/29 09:46:17;;;;;;;2.97;1.67;;;;;;;-146.19;100.00;58918.88;5005974;28;20082;-59
2021/12/29 09:48:47;;;;;;;3.00;1.80;;;;;;;-146.19;100.00;58918.88;5025129;28;20065;-49
2021/12/29 09:51:17;;;;;;;2.92;1.67;;;;;;;-146.19;100.00;58918.88;5025143;28;20065;-52
2021/12/29 09:53:46;;;;;;;3.97;1.85;;;;;;;-146.19;100.00;58918.88;5028401;28;20802;-54
2021/12/29 09:56:16;;;;;;;2.55;1.83;;;;;;;-146.19;100.00;58918.88;5026226;28;20073;-52
2021/12/29 09:58:44;;;;;;;7.18;2.10;;;;;;;-146.19;100.00;58918.88;5030727;28;20108;-52
2021/12/29 10:01:13;;;;;;;3.85;1.70;;;;;;;-146.19;100.00;58918.88;5025117;28;20077;-55
2021/12/29 10:03:44;;;;;;;3.40;1.73;;;;;;;-146.19;100.00;58918.88;5002492;28;20084;-56
2021/12/29 10:06:13;;;;;;;2.80;1.60;;;;;;;-146.19;100.00;58918.88;5022374;28;20116;-57
2021/12/29 10:08:43;;;;;;;2.67;1.70;;;;;;;-146.19;100.00;58918.88;5023482;28;20073;-57
2021/12/29 10:11:13;;;;;;;2.55;1.60;;;;;;;-146.19;100.00;58918.88;5023879;28;20080;-51
2021/12/29 10:13:45;;;;;;;3.63;2.08;;;;;;;-146.19;100.00;58918.88;5025765;28;20453;-52
2021/12/29 10:16:16;;;;;;;3.45;1.65;;;;;;;-146.19;100.00;58918.88;5029136;28;20080;-49
2021/12/29 10:18:44;;;;;;;;;;;;;;;-146.19;100.00;58918.88;5000527;28;20069;-54
2021/12/29 10:21:14;;;;;;;2.70;1.75;;;;;;;-146.19;100.00;58918.88;5001281;28;19961;-57
2021/12/29 10:23:45;;;;;;;2.17;1.58;;;;;;;-146.19;100.00;58918.88;5000792;28;20073;-55
2021/12/29 10:26:35;;;;;;;4.22;1.70;;;;;;;-146.19;100.00;58918.88;5000510;28;20057;-53
2021/12/29 10:29:11;;;;;;;3.58;1.85;;;;;;;-146.19;100.00;58918.88;5008558;28;20512;-55
2021/12/29 10:31:43;;;;;;;3.47;1.58;;;;;;;-146.19;100.00;58918.88;5020600;28;20438;-52
2021/12/29 10:34:14;;;;;;;2.72;1.90;;;;;;;-146.19;100.00;58918.88;5008611;28;20484;-56
2021/12/29 10:36:44;;;;;;;1.65;1.33;;;;;;;-146.19;100.00;58918.88;5001488;28;20076;-53
2021/12/29 10:39:14;;;;;;;;;;;;;;;-146.19;100.00;58918.88;5003716;28;20065;-59
2021/12/29 10:41:48;;;;;;;2.05;1.67;;;;;;;-146.19;100.00;58918.88;5018769;28;19956;-54
2021/12/29 10:44:26;;;;;;;2.45;1.80;;;;;;;-146.19;100.00;58918.88;5029999;28;20057;-48
2021/12/29 10:46:56;;;;;;;3.58;1.77;;;;;;;-146.19;100.00;58918.88;5020871;28;20455;-52
2021/12/29 10:49:27;;;;;;;3.38;1.65;;;;;;;-146.19;100.00;58918.88;5021535;28;20088;-54
2021/12/29 10:51:57;;;;;;;5.90;1.83;;;;;;;-146.19;100.00;58918.88;5008262;28;20073;-52
2021/12/29 10:54:29;;;;;;;3.13;1.77;;;;;;;-146.19;100.00;58918.88;5021763;28;20558;-54
2021/12/29 10:57:01;;;;;;;2.95;1.70;;;;;;;-146.19;100.00;58918.88;5005831;28;20066;-55
2021/12/29 10:59:33;;;;;;;3.72;1.70;;;;;;;-146.19;100.00;58918.88;5014551;28;20073;-54
2021/12/29 11:02:02;;;;;;;1.75;1.35;;;;;;;-146.19;100.00;58918.88;5025514;28;20061;-55
2021/12/29 11:04:31;;;;;;;3.08;1.60;;;;;;;-146.19;100.00;58918.88;5023583;28;20087;-56
2021/12/29 11:07:01;;;;;;;3.53;1.70;;;;;;;-146.19;100.00;58918.88;5025071;28;20057;-57
2021/12/29 11:09:32;;;;;;;3.97;1.73;;;;;;;-146.19;100.00;58918.88;5023681;28;20064;-53
2021/12/29 11:12:01;;;;;;;1.98;1.35;;;;;;;-146.19;100.00;58918.88;5009895;28;20088;-56
2021/12/29 11:14:37;;;;;;;4.15;1.60;;;;;;;-146.19;100.00;58918.88;5013639;28;20065;-55
2021/12/29 11:17:08;;;;;;;5.68;2.28;;;;;;;-146.19;100.00;58918.88;5017740;28;20066;-57
2021/12/29 11:19:37;;;;;;;5.03;1.65;;;;;;;-146.19;100.00;58918.88;5008123;28;20542;-54
2021/12/29 11:22:11;;;;;;;1.95;1.42;;;;;;;-146.19;100.00;58918.88;5022470;28;20507;-54
2021/12/29 11:24:41;;;;;;;3.22;1.70;;;;;;;-146.19;100.00;58918.88;4994786;28;20084;-56